createdAt,value
2023-04-09T00:00:19.011Z,98142.66
2023-04-09T00:03:07.947Z,98138.39
2023-04-09T00:05:41.504Z,98141.75
2023-04-09T00:08:09.781Z,98138.91
2023-04-09T00:10:38.144Z,98143.44
2023-04-09T00:13:07.538Z,98143.61
2023-04-09T00:15:36.385Z,98145.96
2023-04-09T00:18:04.866Z,98145.41
2023-04-09T00:20:33.166Z,98145.38
2023-04-09T00:23:01.519Z,98146.81
2023-04-09T00:25:29.857Z,98146.48
2023-04-09T00:27:59.100Z,98144.53
2023-04-09T00:30:32.444Z,98147.53
2023-04-09T00:33:01.196Z,98147.52
2023-04-09T00:35:31.489Z,98148.20
2023-04-09T00:38:03.461Z,98149.38
2023-04-09T00:40:31.649Z,98144.89
2023-04-09T00:42:59.929Z,98145.52
2023-04-09T00:45:28.239Z,98142.59
2023-04-09T00:47:57.511Z,98143.09
2023-04-09T00:50:26.197Z,98144.59
2023-04-09T00:52:54.713Z,98145.55
2023-04-09T00:55:23.695Z,98146.18
2023-04-09T00:57:51.813Z,98145.58
2023-04-09T01:00:20.221Z,98144.19
2023-04-09T01:02:49.394Z,98144.08
2023-04-09T01:05:17.836Z,98145.54
2023-04-09T01:08:18.360Z,98143.23
2023-04-09T01:11:07.490Z,98141.41
2023-04-09T01:13:56.182Z,98138.17
2023-04-09T01:16:24.615Z,98143.05
2023-04-09T01:18:59.214Z,98141.52
2023-04-09T01:21:33.204Z,98141.32
2023-04-09T01:24:13.934Z,98145.64
2023-04-09T01:27:05.776Z,98143.23
2023-04-09T01:29:53.571Z,98141.34
2023-04-09T01:32:23.059Z,98144.38
2023-04-09T01:34:52.654Z,98142.10
2023-04-09T01:37:26.481Z,98147.80
2023-04-09T01:39:56.930Z,98146.32
2023-04-09T01:42:26.486Z,98145.05
2023-04-09T01:44:57.305Z,98143.11
2023-04-09T01:47:27.666Z,98144.45
2023-04-09T01:49:55.806Z,98147.00
2023-04-09T01:52:24.426Z,98144.61
2023-04-09T01:54:53.062Z,98144.77
2023-04-09T01:57:21.096Z,98144.27
2023-04-09T01:59:49.359Z,98143.65
2023-04-09T02:02:34.524Z,98142.74
2023-04-09T02:05:09.023Z,98142.94
2023-04-09T02:07:43.993Z,98141.46
2023-04-09T02:10:14.364Z,98147.09
2023-04-09T02:12:49.152Z,98147.89
2023-04-09T02:15:19.697Z,98147.25
2023-04-09T02:17:48.583Z,98147.66
2023-04-09T02:20:20.517Z,98145.60
2023-04-09T02:22:49.283Z,98143.56
2023-04-09T02:25:18.641Z,98143.69
2023-04-09T02:27:47.137Z,98142.83
2023-04-09T02:30:18.268Z,98141.95
2023-04-09T02:32:46.456Z,98136.58
2023-04-09T02:35:15.491Z,98136.79
2023-04-09T02:37:43.862Z,98137.20
2023-04-09T02:40:12.537Z,98137.36
2023-04-09T02:42:41.108Z,98140.25
2023-04-09T02:45:11.009Z,98141.91
2023-04-09T02:47:39.154Z,98136.71
2023-04-09T02:50:08.730Z,98136.08
2023-04-09T02:52:37.783Z,98135.31
2023-04-09T02:55:06.788Z,98136.23
2023-04-09T02:57:35.000Z,98137.06
2023-04-09T03:00:05.555Z,98135.95
2023-04-09T03:02:34.002Z,98139.05
2023-04-09T03:05:02.728Z,98136.48
2023-04-09T03:07:32.118Z,98135.95
2023-04-09T03:10:00.307Z,98133.41
2023-04-09T03:12:29.030Z,98134.98
2023-04-09T03:14:57.127Z,98132.75
2023-04-09T03:17:28.083Z,98130.77
2023-04-09T03:19:56.724Z,98127.36
2023-04-09T03:22:24.994Z,98130.86
2023-04-09T03:24:54.043Z,98129.38
2023-04-09T03:27:22.190Z,98127.48
2023-04-09T03:29:56.426Z,98130.77
2023-04-09T03:32:34.715Z,98133.48
2023-04-09T03:35:03.343Z,98134.00
2023-04-09T03:37:31.889Z,98134.41
2023-04-09T03:40:00.178Z,98135.09
2023-04-09T03:42:29.230Z,98136.73
2023-04-09T03:44:57.350Z,98140.13
2023-04-09T03:47:38.213Z,98143.44
2023-04-09T03:50:09.171Z,98142.98
2023-04-09T03:52:52.783Z,98143.20
2023-04-09T03:55:27.211Z,98146.44
2023-04-09T03:57:55.594Z,98151.98
2023-04-09T04:00:27.606Z,98157.54
2023-04-09T04:03:12.269Z,98159.03
2023-04-09T04:06:03.151Z,98162.05
2023-04-09T04:08:37.247Z,98165.02
2023-04-09T04:11:06.191Z,98167.96
2023-04-09T04:13:34.496Z,98169.91
2023-04-09T04:16:08.927Z,98165.55
2023-04-09T04:18:37.887Z,98168.29
2023-04-09T04:21:12.922Z,98165.32
2023-04-09T04:23:42.143Z,98167.52
2023-04-09T04:26:19.094Z,98171.55
2023-04-09T04:28:49.970Z,98174.08
2023-04-09T04:31:28.658Z,98177.42
2023-04-09T04:33:58.955Z,98180.15
2023-04-09T04:36:27.797Z,98178.39
2023-04-09T04:38:56.319Z,98176.48
2023-04-09T04:41:29.692Z,98179.01
2023-04-09T04:44:18.684Z,98177.49
2023-04-09T04:46:47.657Z,98177.52
2023-04-09T04:49:16.099Z,98176.59
2023-04-09T04:51:48.158Z,98176.91
2023-04-09T04:54:17.341Z,98175.41
2023-04-09T04:56:54.319Z,98174.73
2023-04-09T04:59:32.686Z,98172.44
2023-04-09T05:02:05.192Z,98174.08
2023-04-09T05:04:38.015Z,98175.14
2023-04-09T05:07:06.442Z,98177.29
2023-04-09T05:09:45.854Z,98178.53
2023-04-09T05:12:16.399Z,98183.23
2023-04-09T05:14:45.138Z,98186.27
2023-04-09T05:17:13.316Z,98186.63
2023-04-09T05:19:44.373Z,98184.41
2023-04-09T05:22:13.207Z,98184.80
2023-04-09T05:24:41.640Z,98187.30
2023-04-09T05:27:10.402Z,98186.66
2023-04-09T05:29:39.464Z,98186.45
2023-04-09T05:32:09.710Z,98188.90
2023-04-09T05:34:39.604Z,98192.27
2023-04-09T05:37:07.685Z,98196.84
2023-04-09T05:39:36.462Z,98194.27
2023-04-09T05:42:05.784Z,98198.41
2023-04-09T05:44:38.975Z,98201.19
2023-04-09T05:47:11.251Z,98205.16
2023-04-09T05:49:45.638Z,98208.79
2023-04-09T05:52:17.149Z,98207.76
2023-04-09T05:54:46.494Z,98215.79
2023-04-09T05:57:17.179Z,98215.23
2023-04-09T05:59:48.950Z,98218.42
2023-04-09T06:02:17.500Z,98216.80
2023-04-09T06:04:46.135Z,98219.39
2023-04-09T06:07:16.617Z,98225.02
2023-04-09T06:09:47.102Z,98225.42
2023-04-09T06:12:16.520Z,98224.20
2023-04-09T06:14:48.673Z,98224.21
2023-04-09T06:17:17.164Z,98229.09
2023-04-09T06:19:45.348Z,98228.40
2023-04-09T06:22:16.286Z,98232.24
2023-04-09T06:24:44.456Z,98228.46
2023-04-09T06:27:13.496Z,98228.50
2023-04-09T06:29:41.623Z,98231.00
2023-04-09T06:32:09.772Z,98229.80
2023-04-09T06:34:37.791Z,98228.17
2023-04-09T06:37:06.401Z,98226.70
2023-04-09T06:39:34.681Z,98227.80
2023-04-09T06:42:04.076Z,98229.04
2023-04-09T06:44:51.951Z,98229.01
2023-04-09T06:47:20.240Z,98230.35
2023-04-09T06:49:49.773Z,98229.46
2023-04-09T06:52:19.145Z,98231.27
2023-04-09T06:54:48.020Z,98226.48
2023-04-09T06:57:16.174Z,98225.96
2023-04-09T06:59:45.298Z,98223.33
2023-04-09T07:02:14.017Z,98220.67
2023-04-09T07:04:43.134Z,98217.48
2023-04-09T07:07:13.806Z,98213.06
2023-04-09T07:09:42.989Z,98210.78
2023-04-09T07:12:11.682Z,98207.86
2023-04-09T07:14:40.822Z,98206.16
2023-04-09T07:17:08.916Z,98206.55
2023-04-09T07:19:38.020Z,98203.73
2023-04-09T07:22:06.279Z,98203.05
2023-04-09T07:24:35.541Z,98206.16
2023-04-09T07:27:04.398Z,98200.33
2023-04-09T07:29:32.655Z,98203.58
2023-04-09T07:32:02.779Z,98207.05
2023-04-09T07:34:31.098Z,98204.75
2023-04-09T07:36:59.400Z,98204.48
2023-04-09T07:39:28.356Z,98203.13
2023-04-09T07:41:57.971Z,98203.13
2023-04-09T07:44:26.061Z,98204.02
2023-04-09T07:46:55.755Z,98203.04
2023-04-09T07:49:23.989Z,98203.70
2023-04-09T07:51:52.374Z,98204.90
2023-04-09T07:54:23.888Z,98201.62
2023-04-09T07:56:52.709Z,98205.46
2023-04-09T07:59:21.464Z,98209.73
2023-04-09T08:01:50.206Z,98210.44
2023-04-09T08:04:19.621Z,98210.95
2023-04-09T08:06:50.839Z,98213.52
2023-04-09T08:09:23.927Z,98215.52
2023-04-09T08:11:53.082Z,98213.13
2023-04-09T08:14:22.039Z,98213.40
2023-04-09T08:16:51.520Z,98206.91
2023-04-09T08:19:21.879Z,98204.52
2023-04-09T08:21:50.894Z,98202.30
2023-04-09T08:24:19.199Z,98203.56
2023-04-09T08:26:47.571Z,98201.26
2023-04-09T08:29:16.928Z,98203.08
2023-04-09T08:31:46.149Z,98203.81
2023-04-09T08:34:16.204Z,98199.78
2023-04-09T08:36:48.230Z,98199.20
2023-04-09T08:39:20.960Z,98195.73
2023-04-09T08:41:51.233Z,98199.41
2023-04-09T08:44:19.568Z,98201.31
2023-04-09T08:46:48.798Z,98202.02
2023-04-09T08:49:17.120Z,98199.13
2023-04-09T08:51:47.573Z,98195.45
2023-04-09T08:54:19.152Z,98194.96
2023-04-09T08:56:49.256Z,98193.41
2023-04-09T08:59:18.740Z,98193.61
2023-04-09T09:01:52.892Z,98188.61
2023-04-09T09:04:24.607Z,98187.89
2023-04-09T09:06:55.416Z,98184.36
2023-04-09T09:09:26.914Z,98183.23
2023-04-09T09:11:56.038Z,98183.71
2023-04-09T09:14:24.497Z,98185.30
2023-04-09T09:16:55.762Z,98181.92
2023-04-09T09:19:24.398Z,98182.74
2023-04-09T09:22:00.624Z,98183.15
2023-04-09T09:24:30.471Z,98180.20
2023-04-09T09:26:59.265Z,98180.04
2023-04-09T09:29:29.860Z,98178.05
2023-04-09T09:31:58.505Z,98180.98
2023-04-09T09:34:26.764Z,98181.24
2023-04-09T09:36:54.897Z,98179.23
2023-04-09T09:39:23.685Z,98179.27
2023-04-09T09:42:10.421Z,98177.45
2023-04-09T09:44:38.563Z,98169.67
2023-04-09T09:47:08.324Z,98164.64
2023-04-09T09:49:37.449Z,98166.30
2023-04-09T09:52:11.127Z,98161.23
2023-04-09T09:54:45.855Z,98160.84
2023-04-09T09:57:19.047Z,98161.34
2023-04-09T09:59:59.011Z,98158.98
2023-04-09T10:02:33.064Z,98161.56
2023-04-09T10:05:02.328Z,98155.98
2023-04-09T10:07:31.750Z,98153.23
2023-04-09T10:10:03.295Z,98155.36
2023-04-09T10:12:33.252Z,98152.66
2023-04-09T10:15:21.571Z,98152.62
2023-04-09T10:17:50.767Z,98148.16
2023-04-09T10:20:29.398Z,98143.06
2023-04-09T10:23:03.113Z,98139.40
2023-04-09T10:25:31.748Z,98143.94
2023-04-09T10:28:14.794Z,98138.05
2023-04-09T10:30:43.524Z,98140.09
2023-04-09T10:33:15.039Z,98142.13
2023-04-09T10:35:46.740Z,98143.44
2023-04-09T10:38:16.123Z,98142.45
2023-04-09T10:40:49.919Z,98138.91
2023-04-09T10:43:21.227Z,98135.86
2023-04-09T10:45:54.582Z,98136.55
2023-04-09T10:48:26.250Z,98133.86
2023-04-09T10:50:57.944Z,98134.75
2023-04-09T10:53:27.719Z,98134.86
2023-04-09T10:55:57.596Z,98133.14
2023-04-09T10:58:25.684Z,98128.31
2023-04-09T11:00:57.216Z,98127.02
2023-04-09T11:03:34.712Z,98126.98
2023-04-09T11:06:10.216Z,98125.84
2023-04-09T11:08:39.300Z,98126.31
2023-04-09T11:11:11.495Z,98120.48
2023-04-09T11:13:41.807Z,98117.51
2023-04-09T11:16:24.768Z,98119.30
2023-04-09T11:18:59.166Z,98116.70
2023-04-09T11:21:29.945Z,98115.90
2023-04-09T11:24:00.968Z,98115.77
2023-04-09T11:26:36.639Z,98117.61
2023-04-09T11:29:07.348Z,98119.26
2023-04-09T11:31:36.472Z,98118.79
2023-04-09T11:34:14.535Z,98121.23
2023-04-09T11:36:49.984Z,98117.93
2023-04-09T11:39:18.701Z,98116.28
2023-04-09T11:41:48.254Z,98116.94
2023-04-09T11:44:16.898Z,98115.70
2023-04-09T11:46:46.337Z,98115.42
2023-04-09T11:49:15.736Z,98117.51
2023-04-09T11:51:43.862Z,98118.10
2023-04-09T11:54:12.652Z,98122.34
2023-04-09T11:56:41.603Z,98122.98
2023-04-09T11:59:10.856Z,98125.46
2023-04-09T12:01:39.561Z,98124.63
2023-04-09T12:04:08.115Z,98123.73
2023-04-09T12:06:43.096Z,98121.50
2023-04-09T12:09:13.845Z,98121.07
2023-04-09T12:11:45.015Z,98120.25
2023-04-09T12:14:18.351Z,98118.75
2023-04-09T12:16:52.073Z,98117.29
2023-04-09T12:19:21.816Z,98115.66
2023-04-09T12:21:53.123Z,98119.24
2023-04-09T12:24:24.469Z,98113.66
2023-04-09T12:26:52.606Z,98112.46
2023-04-09T12:29:21.820Z,98109.34
2023-04-09T12:31:50.357Z,98109.31
2023-04-09T12:34:18.599Z,98105.17
2023-04-09T12:36:46.938Z,98104.34
2023-04-09T12:39:14.986Z,98105.43
2023-04-09T12:41:45.414Z,98104.77
2023-04-09T12:44:16.050Z,98103.23
2023-04-09T12:46:45.692Z,98104.95
2023-04-09T12:49:14.581Z,98099.08
2023-04-09T12:51:42.842Z,98095.47
2023-04-09T12:54:11.379Z,98092.20
2023-04-09T12:56:39.678Z,98092.61
2023-04-09T12:59:07.729Z,98090.51
2023-04-09T13:01:36.171Z,98092.98
2023-04-09T13:04:04.810Z,98087.04
2023-04-09T13:06:33.139Z,98086.73
2023-04-09T13:09:01.519Z,98081.70
2023-04-09T13:11:29.884Z,98079.76
2023-04-09T13:13:58.453Z,98081.30
2023-04-09T13:16:26.929Z,98079.23
2023-04-09T13:18:55.494Z,98080.48
2023-04-09T13:21:23.887Z,98076.29
2023-04-09T13:23:53.897Z,98077.27
2023-04-09T13:26:24.530Z,98078.00
2023-04-09T13:28:54.150Z,98079.74
2023-04-09T13:31:22.755Z,98086.40
2023-04-09T13:33:53.647Z,98085.31
2023-04-09T13:36:21.881Z,98082.88
2023-04-09T13:38:50.551Z,98078.34
2023-04-09T13:41:20.796Z,98075.11
2023-04-09T13:43:48.914Z,98075.52
2023-04-09T13:46:17.588Z,98076.73
2023-04-09T13:48:45.949Z,98077.79
2023-04-09T13:51:15.492Z,98078.30
2023-04-09T13:53:46.190Z,98072.48
2023-04-09T13:56:15.462Z,98066.41
2023-04-09T13:58:43.845Z,98071.54
2023-04-09T14:01:12.204Z,98067.44
2023-04-09T14:03:41.156Z,98067.58
2023-04-09T14:06:12.367Z,98066.23
2023-04-09T14:08:41.729Z,98064.73
2023-04-09T14:11:14.118Z,98066.35
2023-04-09T14:13:43.086Z,98063.95
2023-04-09T14:16:11.588Z,98060.79
2023-04-09T14:18:40.162Z,98061.61
2023-04-09T14:21:10.239Z,98063.42
2023-04-09T14:23:39.820Z,98064.77
2023-04-09T14:26:08.509Z,98059.79
2023-04-09T14:28:36.679Z,98061.11
2023-04-09T14:31:05.890Z,98058.88
2023-04-09T14:33:34.170Z,98059.58
2023-04-09T14:36:02.857Z,98057.67
2023-04-09T14:38:31.509Z,98056.02
2023-04-09T14:41:01.801Z,98053.79
2023-04-09T14:43:30.715Z,98053.29
2023-04-09T14:46:04.192Z,98053.38
2023-04-09T14:48:33.284Z,98056.39
2023-04-09T14:51:04.683Z,98055.54
2023-04-09T14:53:32.835Z,98051.97
2023-04-09T14:56:01.301Z,98048.14
2023-04-09T14:58:30.664Z,98047.25
2023-04-09T15:00:58.856Z,98048.48
2023-04-09T15:03:27.246Z,98044.08
2023-04-09T15:05:55.642Z,98043.59
2023-04-09T15:08:24.024Z,98044.35
2023-04-09T15:10:53.100Z,98041.58
2023-04-09T15:13:21.675Z,98044.14
2023-04-09T15:15:50.436Z,98039.75
2023-04-09T15:18:21.317Z,98040.81
2023-04-09T15:20:51.065Z,98040.52
2023-04-09T15:23:19.534Z,98041.70
2023-04-09T15:25:49.019Z,98041.38
2023-04-09T15:28:18.185Z,98040.33
2023-04-09T15:30:46.409Z,98040.06
2023-04-09T15:33:14.722Z,98039.91
2023-04-09T15:35:43.801Z,98034.04
2023-04-09T15:38:13.072Z,98033.34
2023-04-09T15:40:42.856Z,98036.35
2023-04-09T15:43:12.761Z,98032.12
2023-04-09T15:45:42.908Z,98031.20
2023-04-09T15:48:11.736Z,98028.99
2023-04-09T15:50:42.898Z,98027.63
2023-04-09T15:53:11.307Z,98026.88
2023-04-09T15:55:39.946Z,98028.73
2023-04-09T15:58:09.033Z,98030.42
2023-04-09T16:00:38.614Z,98025.65
2023-04-09T16:03:06.693Z,98024.12
2023-04-09T16:05:35.136Z,98022.27
2023-04-09T16:08:03.706Z,98022.20
2023-04-09T16:10:32.028Z,98020.49
2023-04-09T16:13:00.352Z,98020.23
2023-04-09T16:15:28.528Z,98020.84
2023-04-09T16:17:57.413Z,98021.81
2023-04-09T16:20:25.686Z,98019.48
2023-04-09T16:22:54.160Z,98022.88
2023-04-09T16:25:25.131Z,98020.48
2023-04-09T16:27:53.296Z,98021.77
2023-04-09T16:30:22.322Z,98022.05
2023-04-09T16:32:50.476Z,98020.63
2023-04-09T16:35:19.810Z,98021.26
2023-04-09T16:37:48.360Z,98027.15
2023-04-09T16:40:18.598Z,98028.14
2023-04-09T16:42:46.729Z,98028.73
2023-04-09T16:45:15.018Z,98033.59
2023-04-09T16:47:43.179Z,98032.36
2023-04-09T16:50:12.120Z,98035.27
2023-04-09T16:52:43.374Z,98032.30
2023-04-09T16:55:13.594Z,98033.33
2023-04-09T16:57:42.457Z,98033.37
2023-04-09T17:00:12.800Z,98034.48
2023-04-09T17:02:41.029Z,98036.13
2023-04-09T17:05:10.708Z,98036.33
2023-04-09T17:07:40.238Z,98038.62
2023-04-09T17:10:09.204Z,98040.56
2023-04-09T17:12:40.590Z,98043.40
2023-04-09T17:15:09.671Z,98046.17
2023-04-09T17:17:41.711Z,98045.18
2023-04-09T17:20:10.565Z,98044.91
2023-04-09T17:22:39.396Z,98045.09
2023-04-09T17:25:08.857Z,98051.02
2023-04-09T17:27:37.109Z,98051.80
2023-04-09T17:30:05.995Z,98055.23
2023-04-09T17:32:34.680Z,98056.13
2023-04-09T17:35:03.827Z,98055.06
2023-04-09T17:37:32.376Z,98057.37
2023-04-09T17:40:02.598Z,98060.05
2023-04-09T17:42:31.222Z,98061.02
2023-04-09T17:45:01.568Z,98062.73
2023-04-09T17:47:30.062Z,98062.45
2023-04-09T17:50:00.011Z,98067.52
2023-04-09T17:52:29.648Z,98064.89
2023-04-09T17:54:58.840Z,98067.65
2023-04-09T17:57:26.963Z,98070.40
2023-04-09T17:59:58.112Z,98073.80
2023-04-09T18:02:26.700Z,98078.30
2023-04-09T18:05:01.695Z,98082.35
2023-04-09T18:07:33.532Z,98083.51
2023-04-09T18:10:03.341Z,98087.63
2023-04-09T18:12:32.674Z,98084.89
2023-04-09T18:15:01.498Z,98086.61
2023-04-09T18:17:31.784Z,98086.52
2023-04-09T18:20:01.071Z,98085.84
2023-04-09T18:22:30.342Z,98089.17
2023-04-09T18:24:58.604Z,98091.73
2023-04-09T18:27:27.060Z,98092.14
2023-04-09T18:29:56.030Z,98092.94
2023-04-09T18:32:25.457Z,98094.77
2023-04-09T18:34:53.929Z,98095.03
2023-04-09T18:37:22.575Z,98098.19
2023-04-09T18:39:51.712Z,98099.25
2023-04-09T18:42:19.918Z,98100.02
2023-04-09T18:44:48.095Z,98100.56
2023-04-09T18:47:16.537Z,98100.20
2023-04-09T18:49:45.922Z,98101.27
2023-04-09T18:52:14.039Z,98105.33
2023-04-09T18:54:43.392Z,98100.25
2023-04-09T18:57:12.086Z,98102.35
2023-04-09T18:59:41.451Z,98101.20
2023-04-09T19:02:10.257Z,98109.39
2023-04-09T19:04:42.099Z,98112.90
2023-04-09T19:07:12.183Z,98109.38
2023-04-09T19:09:41.785Z,98114.63
2023-04-09T19:12:10.047Z,98114.55
2023-04-09T19:14:40.264Z,98112.10
2023-04-09T19:17:08.773Z,98111.55
2023-04-09T19:19:37.460Z,98115.05
2023-04-09T19:22:05.528Z,98119.33
2023-04-09T19:24:36.212Z,98113.82
2023-04-09T19:27:09.673Z,98120.20
2023-04-09T19:29:38.228Z,98117.87
2023-04-09T19:32:09.327Z,98119.66
2023-04-09T19:34:38.440Z,98119.98
2023-04-09T19:37:09.623Z,98118.61
2023-04-09T19:39:38.272Z,98121.67
2023-04-09T19:42:06.523Z,98119.64
2023-04-09T19:44:35.154Z,98118.48
2023-04-09T19:47:04.388Z,98121.27
2023-04-09T19:49:35.659Z,98121.58
2023-04-09T19:52:08.111Z,98123.05
2023-04-09T19:54:37.804Z,98122.33
2023-04-09T19:57:07.879Z,98124.40
2023-04-09T19:59:39.784Z,98127.77
2023-04-09T20:02:08.373Z,98122.27
2023-04-09T20:04:37.974Z,98121.98
2023-04-09T20:07:07.556Z,98127.61
2023-04-09T20:09:42.619Z,98128.15
2023-04-09T20:12:13.861Z,98124.24
2023-04-09T20:14:42.283Z,98122.39
2023-04-09T20:17:10.844Z,98121.17
2023-04-09T20:19:40.307Z,98119.49
2023-04-09T20:22:09.005Z,98121.10
2023-04-09T20:24:38.434Z,98120.83
2023-04-09T20:27:06.896Z,98123.18
2023-04-09T20:29:35.468Z,98121.16
2023-04-09T20:32:04.661Z,98118.83
2023-04-09T20:34:33.104Z,98123.66
2023-04-09T20:37:02.907Z,98127.10
2023-04-09T20:39:41.846Z,98124.78
2023-04-09T20:42:09.933Z,98125.30
2023-04-09T20:44:38.305Z,98122.16
2023-04-09T20:47:10.718Z,98125.67
2023-04-09T20:49:40.828Z,98124.15
2023-04-09T20:52:12.385Z,98125.77
2023-04-09T20:54:41.034Z,98128.48
2023-04-09T20:57:12.094Z,98126.98
2023-04-09T20:59:42.469Z,98129.28
2023-04-09T21:02:13.183Z,98130.98
2023-04-09T21:04:41.654Z,98134.95
2023-04-09T21:07:12.395Z,98137.95
2023-04-09T21:09:40.574Z,98140.85
2023-04-09T21:12:10.064Z,98141.42
2023-04-09T21:14:39.078Z,98141.20
2023-04-09T21:17:07.426Z,98141.14
2023-04-09T21:19:38.307Z,98139.64
2023-04-09T21:22:06.370Z,98143.02
2023-04-09T21:24:38.499Z,98140.81
2023-04-09T21:27:08.682Z,98142.40
2023-04-09T21:29:39.334Z,98145.98
2023-04-09T21:32:08.301Z,98146.59
2023-04-09T21:34:37.424Z,98146.27
2023-04-09T21:37:08.746Z,98146.54
2023-04-09T21:39:39.131Z,98146.44
2023-04-09T21:42:09.357Z,98145.64
2023-04-09T21:44:41.474Z,98146.46
2023-04-09T21:47:10.108Z,98144.54
2023-04-09T21:49:42.171Z,98145.27
2023-04-09T21:52:15.039Z,98148.71
2023-04-09T21:54:44.022Z,98146.07
2023-04-09T21:57:12.725Z,98148.87
2023-04-09T21:59:41.660Z,98148.49
2023-04-09T22:02:10.947Z,98143.64
2023-04-09T22:04:42.662Z,98146.61
2023-04-09T22:07:11.974Z,98144.48
2023-04-09T22:09:40.175Z,98150.49
2023-04-09T22:12:08.589Z,98150.84
2023-04-09T22:14:37.942Z,98154.30
2023-04-09T22:17:09.148Z,98154.52
2023-04-09T22:19:37.295Z,98155.09
2023-04-09T22:22:06.147Z,98154.45
2023-04-09T22:24:34.393Z,98150.50
2023-04-09T22:27:03.241Z,98152.91
2023-04-09T22:29:34.277Z,98149.44
2023-04-09T22:32:03.907Z,98149.77
2023-04-09T22:34:32.108Z,98148.25
2023-04-09T22:37:00.317Z,98148.63
2023-04-09T22:39:28.639Z,98147.48
2023-04-09T22:41:59.316Z,98144.78
2023-04-09T22:44:30.913Z,98139.00
2023-04-09T22:46:59.361Z,98139.93
2023-04-09T22:49:28.486Z,98140.00
2023-04-09T22:51:56.694Z,98136.35
2023-04-09T22:54:26.010Z,98135.02
2023-04-09T22:56:54.595Z,98132.52
2023-04-09T22:59:30.345Z,98127.91
2023-04-09T23:02:05.909Z,98130.41
2023-04-09T23:04:35.474Z,98126.45
2023-04-09T23:07:03.840Z,98123.95
2023-04-09T23:09:32.093Z,98124.70
2023-04-09T23:12:01.694Z,98123.93
2023-04-09T23:14:32.412Z,98124.55
2023-04-09T23:17:00.783Z,98122.38
2023-04-09T23:19:28.871Z,98122.39
2023-04-09T23:21:57.319Z,98125.70
2023-04-09T23:24:25.410Z,98123.17
2023-04-09T23:26:53.665Z,98121.73
2023-04-09T23:29:23.268Z,98118.04
2023-04-09T23:31:52.118Z,98120.21
2023-04-09T23:34:21.869Z,98123.23
2023-04-09T23:36:50.056Z,98120.83
2023-04-09T23:39:20.788Z,98119.03
2023-04-09T23:41:51.247Z,98119.20
2023-04-09T23:44:19.470Z,98114.47
2023-04-09T23:46:47.820Z,98113.02
2023-04-09T23:49:18.770Z,98116.54
2023-04-09T23:51:47.637Z,98115.96
2023-04-09T23:54:16.921Z,98118.29
2023-04-09T23:56:47.415Z,98111.79
2023-04-09T23:59:16.102Z,98109.54
